createdAt,value
2023-01-18T00:02:12.252Z,2.80
2023-01-18T00:04:39.786Z,3.30
2023-01-18T00:07:07.172Z,2.90
2023-01-18T00:09:34.522Z,3.00
2023-01-18T00:12:01.993Z,2.90
2023-01-18T00:14:29.521Z,2.60
2023-01-18T00:16:56.848Z,2.10
2023-01-18T00:19:25.662Z,2.20
2023-01-18T00:21:54.359Z,2.40
2023-01-18T00:24:22.786Z,2.77
2023-01-18T00:26:50.444Z,2.60
2023-01-18T00:29:17.958Z,2.40
2023-01-18T00:31:45.484Z,2.40
2023-01-18T00:34:13.064Z,2.50
2023-01-18T00:36:41.720Z,2.90
2023-01-18T00:39:09.677Z,2.83
2023-01-18T00:41:57.551Z,2.47
2023-01-18T00:44:23.935Z,2.43
2023-01-18T00:46:51.637Z,2.40
2023-01-18T00:49:19.091Z,2.10
2023-01-18T00:51:48.011Z,2.17
2023-01-18T00:54:15.474Z,2.30
2023-01-18T00:56:42.815Z,2.40
2023-01-18T00:59:10.269Z,2.40
2023-01-18T01:01:38.046Z,2.10
2023-01-18T01:04:23.010Z,2.00
2023-01-18T01:06:51.839Z,2.03
2023-01-18T01:09:20.198Z,1.83
2023-01-18T01:12:02.282Z,1.70
2023-01-18T01:14:47.565Z,1.63
2023-01-18T01:17:32.705Z,1.70
2023-01-18T01:20:17.883Z,1.80
2023-01-18T01:23:04.081Z,1.47
2023-01-18T01:25:48.967Z,1.70
2023-01-18T01:28:16.309Z,1.53
2023-01-18T01:30:44.588Z,1.87
2023-01-18T01:33:11.973Z,1.47
2023-01-18T01:35:39.522Z,2.10
2023-01-18T01:38:08.200Z,1.80
2023-01-18T01:40:35.571Z,2.00
2023-01-18T01:43:03.052Z,2.00
2023-01-18T01:45:32.198Z,2.00
2023-01-18T01:47:59.769Z,2.10
2023-01-18T01:50:29.231Z,2.20
2023-01-18T01:52:58.510Z,2.20
2023-01-18T01:55:28.975Z,2.00
2023-01-18T01:57:58.629Z,2.00
2023-01-18T02:00:26.074Z,2.13
2023-01-18T02:02:56.018Z,1.80
2023-01-18T02:05:23.773Z,2.37
2023-01-18T02:07:51.403Z,2.03
2023-01-18T02:10:18.823Z,2.33
2023-01-18T02:12:49.687Z,1.97
2023-01-18T02:15:19.869Z,2.20
2023-01-18T02:17:54.549Z,2.00
2023-01-18T02:20:45.538Z,2.50
2023-01-18T02:23:25.369Z,1.90
2023-01-18T02:26:03.934Z,2.37
2023-01-18T02:28:34.293Z,2.47
2023-01-18T02:31:05.217Z,2.10
2023-01-18T02:33:34.770Z,2.03
2023-01-18T02:36:03.495Z,2.50
2023-01-18T02:38:33.264Z,2.07
2023-01-18T02:41:05.619Z,1.93
2023-01-18T02:43:52.078Z,2.17
2023-01-18T02:46:33.731Z,2.17
2023-01-18T02:49:07.318Z,2.30
2023-01-18T02:51:34.976Z,2.60
2023-01-18T02:54:03.306Z,2.23
2023-01-18T02:56:33.591Z,2.23
2023-01-18T02:59:05.527Z,2.40
2023-01-18T03:01:34.788Z,2.57
2023-01-18T03:04:04.412Z,2.80
2023-01-18T03:06:31.955Z,2.90
2023-01-18T03:08:59.826Z,3.30
2023-01-18T03:11:29.701Z,3.53
2023-01-18T03:13:59.267Z,3.43
2023-01-18T03:16:30.648Z,4.67
2023-01-18T03:19:01.340Z,4.27
2023-01-18T03:21:35.802Z,4.40
2023-01-18T03:24:04.415Z,3.90
2023-01-18T03:26:32.418Z,3.50
2023-01-18T03:29:18.957Z,3.10
2023-01-18T03:32:06.877Z,3.00
2023-01-18T03:34:35.379Z,3.13
2023-01-18T03:37:04.049Z,3.37
2023-01-18T03:39:34.429Z,3.13
2023-01-18T03:42:03.590Z,3.30
2023-01-18T03:44:34.441Z,3.53
2023-01-18T03:47:04.055Z,3.93
2023-01-18T03:49:32.045Z,3.93
2023-01-18T03:52:02.848Z,4.10
2023-01-18T03:54:34.745Z,4.00
2023-01-18T03:57:03.801Z,4.40
2023-01-18T03:59:33.864Z,3.60
2023-01-18T04:02:02.728Z,3.30
2023-01-18T04:04:30.128Z,3.53
2023-01-18T04:06:58.351Z,3.20
2023-01-18T04:09:25.798Z,3.37
2023-01-18T04:11:53.428Z,3.20
2023-01-18T04:14:20.773Z,3.23
2023-01-18T04:16:48.118Z,3.50
2023-01-18T04:19:17.040Z,3.27
2023-01-18T04:21:44.402Z,3.60
2023-01-18T04:24:12.136Z,3.60
2023-01-18T04:26:39.874Z,3.67
2023-01-18T04:29:07.216Z,3.47
2023-01-18T04:31:34.601Z,2.83
2023-01-18T04:34:01.972Z,2.87
2023-01-18T04:36:30.811Z,2.90
2023-01-18T04:38:58.148Z,3.07
2023-01-18T04:41:25.782Z,3.00
2023-01-18T04:43:53.162Z,3.13
2023-01-18T04:46:20.544Z,3.30
2023-01-18T04:48:50.149Z,3.10
2023-01-18T04:51:17.493Z,3.40
2023-01-18T04:53:46.471Z,3.87
2023-01-18T04:56:13.843Z,3.37
2023-01-18T04:58:41.224Z,3.60
2023-01-18T05:01:09.613Z,3.67
2023-01-18T05:03:38.197Z,4.60
2023-01-18T05:06:06.902Z,4.40
2023-01-18T05:08:34.682Z,5.50
2023-01-18T05:11:04.577Z,5.20
2023-01-18T05:13:32.154Z,4.77
2023-01-18T05:16:00.496Z,4.17
2023-01-18T05:18:28.027Z,4.07
2023-01-18T05:20:55.547Z,4.13
2023-01-18T05:23:23.228Z,4.30
2023-01-18T05:25:53.025Z,4.37
2023-01-18T05:28:21.779Z,4.27
2023-01-18T05:30:50.024Z,4.50
2023-01-18T05:33:17.464Z,4.70
2023-01-18T05:35:48.330Z,5.67
2023-01-18T05:38:15.691Z,4.23
2023-01-18T05:40:43.815Z,4.20
2023-01-18T05:43:11.194Z,4.30
2023-01-18T05:45:40.277Z,4.57
2023-01-18T05:48:07.624Z,4.00
2023-01-18T05:50:34.971Z,4.50
2023-01-18T05:53:14.291Z,4.67
2023-01-18T05:55:42.032Z,5.13
2023-01-18T05:58:09.386Z,4.80
2023-01-18T06:00:36.826Z,5.27
2023-01-18T06:03:05.520Z,4.37
2023-01-18T06:05:32.878Z,4.30
2023-01-18T06:08:00.458Z,4.93
2023-01-18T06:10:27.875Z,4.97
2023-01-18T06:12:55.240Z,4.77
2023-01-18T06:15:22.710Z,5.20
2023-01-18T06:17:50.040Z,5.00
2023-01-18T06:20:19.075Z,4.87
2023-01-18T06:22:47.252Z,5.30
2023-01-18T06:25:14.625Z,5.47
2023-01-18T06:27:42.325Z,5.17
2023-01-18T06:30:10.969Z,5.57
2023-01-18T06:32:38.573Z,4.97
2023-01-18T06:35:06.455Z,5.37
2023-01-18T06:37:35.196Z,5.33
2023-01-18T06:40:03.014Z,5.07
2023-01-18T06:42:30.442Z,6.17
2023-01-18T06:44:57.868Z,5.10
2023-01-18T06:47:25.264Z,5.67
2023-01-18T06:49:52.972Z,5.57
2023-01-18T06:52:20.311Z,6.07
2023-01-18T06:54:49.086Z,5.50
2023-01-18T06:57:16.511Z,4.30
2023-01-18T06:59:44.053Z,5.67
2023-01-18T07:02:13.892Z,5.17
2023-01-18T07:04:44.070Z,6.37
2023-01-18T07:07:11.441Z,5.73
2023-01-18T07:09:38.934Z,5.67
2023-01-18T07:12:08.233Z,5.57
2023-01-18T07:14:35.646Z,5.37
2023-01-18T07:17:03.033Z,6.10
2023-01-18T07:19:30.362Z,5.40
2023-01-18T07:21:58.790Z,5.60
2023-01-18T07:24:26.178Z,5.40
2023-01-18T07:26:53.530Z,5.53
2023-01-18T07:29:22.345Z,5.47
2023-01-18T07:31:49.746Z,5.37
2023-01-18T07:34:17.113Z,5.70
2023-01-18T07:36:44.507Z,5.90
2023-01-18T07:39:12.271Z,5.80
2023-01-18T07:41:39.741Z,5.73
2023-01-18T07:44:07.302Z,6.33
2023-01-18T07:46:35.977Z,5.63
2023-01-18T07:49:05.743Z,5.83
2023-01-18T07:51:33.398Z,6.20
2023-01-18T07:54:00.748Z,6.20
2023-01-18T07:56:28.092Z,7.37
2023-01-18T07:58:55.608Z,6.97
2023-01-18T08:01:23.431Z,7.47
2023-01-18T08:03:54.454Z,7.67
2023-01-18T08:06:24.628Z,6.67
2023-01-18T08:08:52.570Z,7.80
2023-01-18T08:11:20.304Z,6.63
2023-01-18T08:13:49.198Z,6.07
2023-01-18T08:16:17.728Z,6.23
2023-01-18T08:18:45.859Z,5.87
2023-01-18T08:21:14.653Z,6.60
2023-01-18T08:23:42.101Z,6.60
2023-01-18T08:26:10.160Z,6.57
2023-01-18T08:28:37.541Z,5.77
2023-01-18T08:31:06.924Z,6.77
2023-01-18T08:33:36.799Z,6.67
2023-01-18T08:36:04.196Z,7.00
2023-01-18T08:38:33.235Z,5.80
2023-01-18T08:41:02.362Z,6.77
2023-01-18T08:43:30.243Z,6.67
2023-01-18T08:45:57.667Z,6.93
2023-01-18T08:48:25.110Z,7.60
2023-01-18T08:50:52.457Z,7.30
2023-01-18T08:53:19.805Z,7.73
2023-01-18T08:55:48.493Z,7.53
2023-01-18T08:58:15.824Z,7.13
2023-01-18T09:00:43.193Z,7.57
2023-01-18T09:03:10.748Z,7.60
2023-01-18T09:05:40.275Z,7.23
2023-01-18T09:08:08.311Z,7.33
2023-01-18T09:10:37.442Z,8.10
2023-01-18T09:13:06.544Z,7.70
2023-01-18T09:15:34.217Z,8.17
2023-01-18T09:18:05.999Z,7.93
2023-01-18T09:20:33.591Z,8.97
2023-01-18T09:23:04.775Z,7.90
2023-01-18T09:25:32.269Z,8.53
2023-01-18T09:28:00.000Z,8.57
2023-01-18T09:30:28.666Z,8.93
2023-01-18T09:32:57.575Z,8.47
2023-01-18T09:35:25.259Z,8.50
2023-01-18T09:37:52.824Z,7.67
2023-01-18T09:40:21.199Z,8.20
2023-01-18T09:42:49.612Z,8.77
2023-01-18T09:45:23.219Z,8.27
2023-01-18T09:47:53.985Z,8.40
2023-01-18T09:50:22.144Z,8.43
2023-01-18T09:52:52.961Z,8.50
2023-01-18T09:55:23.463Z,8.37
2023-01-18T09:58:08.524Z,7.70
2023-01-18T10:00:37.567Z,8.17
2023-01-18T10:03:11.031Z,8.03
2023-01-18T10:05:41.493Z,7.47
2023-01-18T10:08:14.697Z,7.27
2023-01-18T10:10:45.418Z,7.70
2023-01-18T10:13:28.919Z,7.17
2023-01-18T10:15:56.730Z,7.73
2023-01-18T10:18:26.050Z,7.53
2023-01-18T10:20:57.658Z,8.13
2023-01-18T10:23:26.589Z,8.20
2023-01-18T10:25:55.385Z,9.50
2023-01-18T10:28:33.023Z,9.40
2023-01-18T10:31:03.795Z,9.00
2023-01-18T10:33:35.144Z,10.17
2023-01-18T10:36:07.427Z,9.60
2023-01-18T10:38:35.316Z,8.60
2023-01-18T10:41:03.319Z,9.30
2023-01-18T10:43:31.992Z,8.93
2023-01-18T10:45:59.488Z,8.30
2023-01-18T10:48:32.827Z,8.33
2023-01-18T10:51:01.211Z,7.67
2023-01-18T10:53:31.369Z,8.20
2023-01-18T10:56:01.699Z,8.70
2023-01-18T10:58:30.844Z,7.40
2023-01-18T11:00:59.790Z,7.93
2023-01-18T11:03:28.336Z,7.23
2023-01-18T11:06:05.106Z,7.83
2023-01-18T11:08:33.597Z,7.97
2023-01-18T11:11:02.468Z,8.10
2023-01-18T11:13:31.855Z,7.63
2023-01-18T11:16:06.536Z,8.30
2023-01-18T11:18:33.880Z,7.60
2023-01-18T11:21:02.756Z,7.37
2023-01-18T11:23:32.315Z,7.80
2023-01-18T11:26:02.161Z,7.47
2023-01-18T11:28:31.129Z,7.67
2023-01-18T11:31:00.305Z,7.53
2023-01-18T11:33:29.372Z,8.03
2023-01-18T11:35:58.476Z,7.80
2023-01-18T11:38:32.290Z,7.60
2023-01-18T11:41:04.005Z,7.63
2023-01-18T11:43:33.886Z,8.40
2023-01-18T11:46:05.827Z,7.97
2023-01-18T11:48:39.207Z,8.07
2023-01-18T11:51:09.916Z,7.57
2023-01-18T11:53:44.757Z,8.63
2023-01-18T11:56:14.517Z,7.60
2023-01-18T11:58:42.053Z,7.67
2023-01-18T12:01:21.761Z,7.90
2023-01-18T12:03:53.143Z,6.97
2023-01-18T12:06:29.964Z,6.70
2023-01-18T12:09:03.615Z,7.33
2023-01-18T12:11:36.225Z,6.93
2023-01-18T12:14:12.769Z,7.77
2023-01-18T12:16:50.385Z,7.20
2023-01-18T12:19:38.923Z,7.33
2023-01-18T12:22:30.518Z,7.80
2023-01-18T12:25:04.765Z,7.47
2023-01-18T12:27:36.454Z,7.53
2023-01-18T12:30:09.233Z,6.73
2023-01-18T12:32:51.747Z,6.70
2023-01-18T12:35:27.548Z,7.00
2023-01-18T12:37:59.093Z,6.20
2023-01-18T12:40:38.900Z,6.57
2023-01-18T12:43:14.838Z,6.87
2023-01-18T12:45:43.213Z,6.47
2023-01-18T12:48:16.439Z,7.13
2023-01-18T12:50:45.503Z,8.43
2023-01-18T12:53:15.684Z,7.63
2023-01-18T12:55:46.813Z,7.97
2023-01-18T12:58:16.836Z,8.57
2023-01-18T13:00:47.057Z,9.17
2023-01-18T13:03:15.477Z,7.93
2023-01-18T13:05:50.889Z,7.97
2023-01-18T13:08:23.608Z,8.73
2023-01-18T13:10:54.310Z,7.83
2023-01-18T13:13:25.607Z,7.90
2023-01-18T13:15:54.810Z,8.53
2023-01-18T13:18:25.702Z,8.87
2023-01-18T13:20:59.839Z,8.33
2023-01-18T13:23:32.518Z,8.20
2023-01-18T13:26:09.876Z,8.33
2023-01-18T13:28:38.369Z,8.00
2023-01-18T13:31:07.946Z,7.80
2023-01-18T13:33:37.165Z,6.97
2023-01-18T13:36:07.909Z,7.77
2023-01-18T13:38:41.957Z,8.70
2023-01-18T13:41:15.250Z,8.83
2023-01-18T13:44:03.779Z,7.80
2023-01-18T13:46:39.211Z,7.93
2023-01-18T13:49:36.640Z,8.10
2023-01-18T13:52:29.200Z,7.23
2023-01-18T13:55:05.252Z,7.43
2023-01-18T13:57:35.350Z,8.53
2023-01-18T14:00:03.430Z,7.43
2023-01-18T14:02:34.140Z,7.97
2023-01-18T14:05:03.484Z,6.33
2023-01-18T14:07:31.721Z,6.60
2023-01-18T14:10:03.321Z,6.77
2023-01-18T14:12:47.976Z,7.00
2023-01-18T14:15:35.159Z,8.17
2023-01-18T14:18:02.824Z,7.13
2023-01-18T14:20:38.961Z,7.00
2023-01-18T14:23:09.907Z,7.20
2023-01-18T14:25:55.305Z,6.50
2023-01-18T14:28:27.332Z,7.17
2023-01-18T14:30:56.607Z,6.20
2023-01-18T14:33:26.400Z,5.73
2023-01-18T14:35:54.581Z,4.93
2023-01-18T14:38:22.212Z,7.00
2023-01-18T14:40:51.281Z,6.57
2023-01-18T14:43:22.297Z,6.07
2023-01-18T14:45:53.885Z,6.00
2023-01-18T14:48:22.632Z,6.20
2023-01-18T14:50:51.437Z,5.93
2023-01-18T14:53:21.033Z,5.83
2023-01-18T14:56:02.070Z,6.53
2023-01-18T14:58:32.990Z,6.50
2023-01-18T15:01:01.871Z,5.67
2023-01-18T15:03:30.915Z,6.87
2023-01-18T15:06:00.158Z,5.83
2023-01-18T15:08:27.857Z,6.13
2023-01-18T15:10:55.450Z,6.83
2023-01-18T15:13:26.337Z,6.27
2023-01-18T15:15:54.487Z,5.43
2023-01-18T15:18:24.515Z,5.07
2023-01-18T15:20:53.985Z,4.87
2023-01-18T15:23:21.828Z,5.53
2023-01-18T15:25:50.632Z,4.17
2023-01-18T15:28:23.829Z,3.00
2023-01-18T15:30:52.615Z,3.80
2023-01-18T15:33:20.713Z,4.90
2023-01-18T15:35:50.620Z,3.97
2023-01-18T15:38:18.043Z,3.70
2023-01-18T15:40:55.112Z,3.57
2023-01-18T15:43:25.930Z,2.63
2023-01-18T15:45:54.991Z,2.77
2023-01-18T15:48:23.290Z,2.97
2023-01-18T15:50:53.125Z,2.33
2023-01-18T15:53:21.700Z,2.07
2023-01-18T15:55:50.487Z,1.97
2023-01-18T15:58:25.843Z,2.77
2023-01-18T16:00:57.350Z,2.70
2023-01-18T16:03:26.465Z,2.63
2023-01-18T16:05:58.762Z,2.77
2023-01-18T16:08:26.746Z,2.27
2023-01-18T16:10:54.971Z,2.67
2023-01-18T16:13:43.577Z,2.27
2023-01-18T16:16:20.074Z,2.40
2023-01-18T16:18:48.847Z,2.53
2023-01-18T16:21:21.708Z,1.90
2023-01-18T16:23:50.363Z,2.00
2023-01-18T16:26:22.948Z,2.00
2023-01-18T16:28:51.523Z,1.97
2023-01-18T16:31:21.106Z,1.67
2023-01-18T16:33:48.478Z,1.50
2023-01-18T16:36:17.825Z,1.63
2023-01-18T16:38:46.574Z,1.40
2023-01-18T16:41:15.022Z,1.73
2023-01-18T16:43:44.832Z,1.63
2023-01-18T16:46:12.676Z,1.57
2023-01-18T16:48:40.377Z,1.47
2023-01-18T16:51:13.530Z,1.40
2023-01-18T16:53:41.137Z,1.40
2023-01-18T16:56:10.275Z,1.47
2023-01-18T16:58:38.254Z,1.13
2023-01-18T17:01:06.854Z,1.37
2023-01-18T17:03:36.005Z,1.40
2023-01-18T17:06:03.805Z,1.10
2023-01-18T17:08:31.127Z,1.03
2023-01-18T17:10:58.517Z,1.20
2023-01-18T17:13:27.214Z,0.93
2023-01-18T17:15:54.704Z,0.90
2023-01-18T17:18:27.747Z,0.83
2023-01-18T17:20:56.086Z,0.80
2023-01-18T17:23:25.519Z,0.77
2023-01-18T17:25:53.196Z,0.80
2023-01-18T17:28:20.920Z,0.93
2023-01-18T17:30:50.343Z,0.80
2023-01-18T17:33:18.401Z,1.03
2023-01-18T17:35:45.982Z,1.20
2023-01-18T17:38:23.214Z,1.00
2023-01-18T17:40:52.130Z,1.17
2023-01-18T17:43:32.980Z,1.20
2023-01-18T17:46:04.579Z,1.20
2023-01-18T17:48:32.166Z,1.07
2023-01-18T17:50:59.666Z,1.00
2023-01-18T17:53:27.280Z,1.00
2023-01-18T17:55:54.948Z,1.03
2023-01-18T17:58:22.274Z,1.20
2023-01-18T18:00:49.712Z,1.00
2023-01-18T18:03:20.097Z,1.10
2023-01-18T18:05:47.504Z,1.00
2023-01-18T18:08:14.864Z,1.03
2023-01-18T18:10:42.877Z,0.83
2023-01-18T18:13:10.201Z,0.80
2023-01-18T18:15:38.038Z,0.90
2023-01-18T18:18:07.435Z,0.83
2023-01-18T18:20:39.861Z,0.80
2023-01-18T18:23:07.309Z,1.00
2023-01-18T18:25:34.992Z,1.00
2023-01-18T18:28:02.488Z,0.60
2023-01-18T18:30:29.860Z,0.70
2023-01-18T18:32:58.154Z,0.63
2023-01-18T18:35:26.674Z,0.70
2023-01-18T18:37:57.396Z,0.80
2023-01-18T18:40:25.328Z,0.60
2023-01-18T18:43:01.778Z,0.80
2023-01-18T18:45:30.722Z,0.80
2023-01-18T18:47:59.466Z,0.90
2023-01-18T18:50:27.078Z,0.80
2023-01-18T18:52:56.394Z,0.80
2023-01-18T18:55:24.423Z,0.83
2023-01-18T18:57:52.425Z,0.90
2023-01-18T19:00:20.791Z,0.77
2023-01-18T19:02:48.341Z,1.33
2023-01-18T19:05:16.308Z,1.10
2023-01-18T19:07:44.247Z,1.20
2023-01-18T19:10:14.696Z,1.57
2023-01-18T19:12:42.142Z,1.67
2023-01-18T19:15:10.111Z,1.60
2023-01-18T19:17:37.890Z,1.87
2023-01-18T19:20:07.450Z,2.00
2023-01-18T19:22:38.010Z,2.27
2023-01-18T19:25:05.948Z,2.10
2023-01-18T19:27:34.647Z,2.17
2023-01-18T19:30:02.236Z,2.13
2023-01-18T19:32:29.709Z,2.67
2023-01-18T19:34:57.356Z,2.30
2023-01-18T19:37:24.822Z,2.20
2023-01-18T19:39:52.521Z,2.23
2023-01-18T19:42:20.570Z,2.30
2023-01-18T19:44:49.450Z,2.47
2023-01-18T19:47:17.912Z,2.03
2023-01-18T19:49:45.657Z,2.67
2023-01-18T19:52:14.031Z,1.73
2023-01-18T19:54:41.494Z,2.80
2023-01-18T19:57:09.509Z,2.53
2023-01-18T19:59:37.615Z,2.67
2023-01-18T20:02:06.418Z,3.27
2023-01-18T20:04:34.087Z,3.07
2023-01-18T20:07:01.537Z,3.10
2023-01-18T20:09:42.551Z,1.83
2023-01-18T20:12:12.462Z,2.83
2023-01-18T20:14:41.859Z,3.43
2023-01-18T20:17:11.441Z,3.10
2023-01-18T20:19:39.046Z,3.20
2023-01-18T20:22:06.690Z,3.17
2023-01-18T20:24:34.644Z,3.10
2023-01-18T20:27:15.343Z,3.10
2023-01-18T20:29:44.430Z,3.33
2023-01-18T20:32:16.767Z,3.03
2023-01-18T20:34:46.432Z,3.43
2023-01-18T20:37:14.356Z,2.63
2023-01-18T20:39:41.735Z,3.40
2023-01-18T20:42:09.183Z,3.43
2023-01-18T20:44:36.834Z,2.23
2023-01-18T20:47:04.603Z,3.83
2023-01-18T20:49:38.277Z,3.50
2023-01-18T20:52:06.925Z,3.10
2023-01-18T20:54:36.051Z,3.63
2023-01-18T20:57:04.519Z,3.07
2023-01-18T20:59:31.953Z,4.00
2023-01-18T21:02:00.245Z,3.73
2023-01-18T21:04:27.893Z,3.20
2023-01-18T21:06:57.439Z,4.07
2023-01-18T21:09:25.046Z,4.80
2023-01-18T21:11:52.747Z,4.83
2023-01-18T21:14:20.340Z,4.33
2023-01-18T21:16:48.024Z,5.20
2023-01-18T21:19:15.412Z,5.33
2023-01-18T21:21:43.057Z,4.87
2023-01-18T21:24:11.811Z,4.87
2023-01-18T21:26:39.318Z,4.53
2023-01-18T21:29:06.671Z,5.00
2023-01-18T21:31:34.284Z,3.57
2023-01-18T21:34:01.706Z,4.67
2023-01-18T21:36:29.165Z,4.47
2023-01-18T21:38:56.747Z,3.57
2023-01-18T21:41:43.011Z,3.90
2023-01-18T21:44:29.313Z,4.83
2023-01-18T21:46:56.850Z,4.43
2023-01-18T21:50:11.412Z,4.63
2023-01-18T21:52:48.706Z,4.40
2023-01-18T21:55:16.684Z,4.80
2023-01-18T21:58:06.031Z,5.63
2023-01-18T22:00:33.488Z,5.37
2023-01-18T22:03:00.931Z,6.03
2023-01-18T22:05:28.400Z,6.13
2023-01-18T22:07:55.839Z,5.73
2023-01-18T22:10:24.245Z,5.60
2023-01-18T22:12:52.991Z,5.80
2023-01-18T22:15:22.902Z,6.07
2023-01-18T22:17:50.581Z,5.40
2023-01-18T22:20:18.440Z,5.40
2023-01-18T22:22:46.416Z,5.43
2023-01-18T22:25:13.828Z,5.20
2023-01-18T22:27:41.682Z,4.90
2023-01-18T22:30:11.647Z,4.73
2023-01-18T22:32:39.413Z,4.20
2023-01-18T22:35:07.120Z,4.33
2023-01-18T22:37:34.511Z,5.07
2023-01-18T22:40:02.060Z,5.37
2023-01-18T22:42:30.048Z,6.03
2023-01-18T22:44:57.746Z,5.90
2023-01-18T22:47:26.452Z,5.17
2023-01-18T22:49:53.945Z,5.40
2023-01-18T22:52:21.645Z,5.53
2023-01-18T22:54:49.128Z,5.43
2023-01-18T22:57:16.517Z,6.10
2023-01-18T22:59:44.560Z,5.60
2023-01-18T23:02:11.957Z,5.10
2023-01-18T23:04:40.643Z,5.90
2023-01-18T23:07:08.084Z,5.90
2023-01-18T23:09:35.738Z,5.93
2023-01-18T23:12:03.103Z,5.87
2023-01-18T23:14:48.222Z,6.23
2023-01-18T23:17:33.973Z,5.47
2023-01-18T23:20:02.878Z,5.27
2023-01-18T23:22:31.132Z,5.30
2023-01-18T23:24:58.874Z,5.70
2023-01-18T23:27:26.214Z,5.70
2023-01-18T23:29:57.269Z,4.93
2023-01-18T23:32:28.037Z,4.03
2023-01-18T23:34:55.499Z,5.10
2023-01-18T23:37:24.570Z,3.77
2023-01-18T23:40:09.407Z,5.03
2023-01-18T23:42:54.724Z,5.20
2023-01-18T23:45:40.004Z,5.03
2023-01-18T23:48:26.091Z,4.57
2023-01-18T23:51:11.006Z,4.33
2023-01-18T23:53:57.079Z,5.60
2023-01-18T23:56:24.616Z,4.50
2023-01-18T23:58:52.106Z,4.47
